Etusivu
METAR-TAF:

METAR-TAF

Lentoasemat :

Brooks County Airport

Falfurrias, Texas, Yhdysvallat

Leveyspiiri: 27-12-24N, Pituuspiiri: 098-07-16W, korkeus merenpinnasta: 34 m

Tämänhetkinen sää

Tämä raportti tehtiin 56 minuuttia sitten, kello 23.55 UTC
Tuuli 15 kn etelästä/kaakosta puuskistuen 20 kn:hen
Lämpötila 27°C
Kosteus 62%
Ilmanpaine 1011 hPa
Näkyvyys: 16.1 km
Muutamia pilviä 7000 ft:n korkeudessa

METAR: KBKS 072355Z AUTO 16015G20KT 10SM FEW070 27/19 A2985 RMK AO2 SLP070 T02680186 $

Aika: 18:51 (00:51 UTC)


TAF: puuttuu

Säähavainnot ja -ennusteet yli 4000 lentoasemalta (METAR- ja TAF-raportit).

Käytössä olevat sääasemat on merkitty karttaan keltaisilla ja punaisilla pisteillä.

Aseta hiiri pisteen päälle nähdäksesi sääaseman nimen.

Klikkaa sitten nähdäksesi säähavainnot ja -ennusteet.

Kartan vaihtaminen: klikkaa mustalla rastilla varustettuja vihreitä pisteitä, niin voit zoomata sisään; viivalla varustettua vihreää pistettä, niin voit zoomata ulos tai vihreitä nuolia, niin pääset viereisille kartoille.


METAR-TAF: